Pennington, California
Current Conditions -  °F | °C
As of 2:53 PM on Friday 28 Nov 2014 (Local Time) from KOVE Reporting Station
Haze Haze  
Wind Chill: 57°   Ceiling: 6500
Heat Index: 57°   Visibility: 4mi
Dew Point: 50°   Wind: 5mph
Humidity: 77%   Direction: 270°W
Pressure: 29.92"   Gusts: NA
Location:  39.2462°N, 121.778°W
Report Text: KOVE 282253Z AUTO 27004KT 4SM HZ BKN065 OVC075 14/10 A2992 RMK AO2 SLP134 T01390100
Loading
Personal Weather Stations






























Interactive Weather Map New forecast layout! Learn more

10-Day Weather Forecast

Advertisements
Track Severe Weather on mobile